sensor_id;sensor_type;location;lat;lon;timestamp;temperature;humidity
59977;DHT22;45837;51.076;3.578;2023-04-16T00:00:11;19.60;53.10
59977;DHT22;45837;51.076;3.578;2023-04-16T00:02:37;19.60;53.50
59977;DHT22;45837;51.076;3.578;2023-04-16T00:05:03;19.60;53.50
59977;DHT22;45837;51.076;3.578;2023-04-16T00:07:28;19.60;53.90
59977;DHT22;45837;51.076;3.578;2023-04-16T00:09:54;19.50;53.50
59977;DHT22;45837;51.076;3.578;2023-04-16T00:12:20;19.60;53.70
59977;DHT22;45837;51.076;3.578;2023-04-16T00:14:45;19.60;53.80
59977;DHT22;45837;51.076;3.578;2023-04-16T00:17:11;19.60;53.50
59977;DHT22;45837;51.076;3.578;2023-04-16T00:19:37;19.50;53.50
59977;DHT22;45837;51.076;3.578;2023-04-16T00:22:02;17.30;52.30
59977;DHT22;45837;51.076;3.578;2023-04-16T00:24:28;19.50;54.00
59977;DHT22;45837;51.076;3.578;2023-04-16T00:26:54;19.60;53.50
59977;DHT22;45837;51.076;3.578;2023-04-16T00:29:20;19.60;53.10
59977;DHT22;45837;51.076;3.578;2023-04-16T00:31:46;19.50;53.00
59977;DHT22;45837;51.076;3.578;2023-04-16T00:34:12;19.50;53.30
59977;DHT22;45837;51.076;3.578;2023-04-16T00:36:38;19.50;53.20
59977;DHT22;45837;51.076;3.578;2023-04-16T00:39:03;19.50;53.10
59977;DHT22;45837;51.076;3.578;2023-04-16T00:41:29;19.50;53.30
59977;DHT22;45837;51.076;3.578;2023-04-16T00:43:55;19.50;53.20
59977;DHT22;45837;51.076;3.578;2023-04-16T00:46:21;19.50;53.30
59977;DHT22;45837;51.076;3.578;2023-04-16T00:48:47;19.50;52.80
59977;DHT22;45837;51.076;3.578;2023-04-16T00:51:13;19.50;53.30
59977;DHT22;45837;51.076;3.578;2023-04-16T00:53:39;19.50;53.30
59977;DHT22;45837;51.076;3.578;2023-04-16T00:56:05;19.50;52.80
59977;DHT22;45837;51.076;3.578;2023-04-16T00:58:32;19.50;52.70
59977;DHT22;45837;51.076;3.578;2023-04-16T01:00:58;19.50;52.70
59977;DHT22;45837;51.076;3.578;2023-04-16T01:03:24;19.40;52.70
59977;DHT22;45837;51.076;3.578;2023-04-16T01:05:51;19.50;52.60
59977;DHT22;45837;51.076;3.578;2023-04-16T01:08:17;19.50;53.30
59977;DHT22;45837;51.076;3.578;2023-04-16T01:10:43;19.50;52.60
59977;DHT22;45837;51.076;3.578;2023-04-16T01:13:10;19.50;52.80
59977;DHT22;45837;51.076;3.578;2023-04-16T01:15:36;19.50;53.50
59977;DHT22;45837;51.076;3.578;2023-04-16T01:18:02;19.50;53.10
59977;DHT22;45837;51.076;3.578;2023-04-16T01:20:28;19.50;52.60
59977;DHT22;45837;51.076;3.578;2023-04-16T01:22:53;19.50;52.90
59977;DHT22;45837;51.076;3.578;2023-04-16T01:25:19;19.50;53.00
59977;DHT22;45837;51.076;3.578;2023-04-16T01:27:48;19.50;52.90
59977;DHT22;45837;51.076;3.578;2023-04-16T01:30:14;19.50;52.70
59977;DHT22;45837;51.076;3.578;2023-04-16T01:32:53;19.50;53.10
59977;DHT22;45837;51.076;3.578;2023-04-16T01:35:18;19.50;53.20
59977;DHT22;45837;51.076;3.578;2023-04-16T01:37:44;19.40;53.00
59977;DHT22;45837;51.076;3.578;2023-04-16T01:40:10;19.40;53.10
59977;DHT22;45837;51.076;3.578;2023-04-16T01:42:36;19.50;53.00
59977;DHT22;45837;51.076;3.578;2023-04-16T01:45:02;19.40;52.60
59977;DHT22;45837;51.076;3.578;2023-04-16T01:47:27;19.50;53.00
59977;DHT22;45837;51.076;3.578;2023-04-16T01:49:53;19.40;52.90
59977;DHT22;45837;51.076;3.578;2023-04-16T01:52:19;19.40;52.90
59977;DHT22;45837;51.076;3.578;2023-04-16T01:54:45;19.40;53.10
59977;DHT22;45837;51.076;3.578;2023-04-16T01:57:11;19.40;53.10
59977;DHT22;45837;51.076;3.578;2023-04-16T01:59:36;19.40;53.00
59977;DHT22;45837;51.076;3.578;2023-04-16T02:02:09;19.40;53.10
59977;DHT22;45837;51.076;3.578;2023-04-16T02:04:36;19.40;52.90
59977;DHT22;45837;51.076;3.578;2023-04-16T02:07:03;19.40;52.50
59977;DHT22;45837;51.076;3.578;2023-04-16T02:09:28;19.40;52.60
59977;DHT22;45837;51.076;3.578;2023-04-16T02:11:54;19.40;53.00
59977;DHT22;45837;51.076;3.578;2023-04-16T02:14:20;19.40;53.30
59977;DHT22;45837;51.076;3.578;2023-04-16T02:16:50;19.40;52.70
59977;DHT22;45837;51.076;3.578;2023-04-16T02:19:30;19.40;52.50
59977;DHT22;45837;51.076;3.578;2023-04-16T02:21:56;19.40;53.50
59977;DHT22;45837;51.076;3.578;2023-04-16T02:24:22;19.40;53.50
59977;DHT22;45837;51.076;3.578;2023-04-16T02:26:48;19.30;52.90
59977;DHT22;45837;51.076;3.578;2023-04-16T02:29:16;19.30;53.10
59977;DHT22;45837;51.076;3.578;2023-04-16T02:31:47;19.30;52.90
59977;DHT22;45837;51.076;3.578;2023-04-16T02:34:14;19.30;52.30
59977;DHT22;45837;51.076;3.578;2023-04-16T02:36:40;19.30;53.00
59977;DHT22;45837;51.076;3.578;2023-04-16T02:39:06;19.30;52.80
59977;DHT22;45837;51.076;3.578;2023-04-16T02:41:32;19.30;52.70
59977;DHT22;45837;51.076;3.578;2023-04-16T02:43:57;19.30;52.80
59977;DHT22;45837;51.076;3.578;2023-04-16T02:46:23;19.30;53.10
59977;DHT22;45837;51.076;3.578;2023-04-16T02:48:49;19.30;53.50
59977;DHT22;45837;51.076;3.578;2023-04-16T02:51:15;19.30;52.80
59977;DHT22;45837;51.076;3.578;2023-04-16T02:53:40;19.30;54.00
59977;DHT22;45837;51.076;3.578;2023-04-16T02:56:10;19.30;52.60
59977;DHT22;45837;51.076;3.578;2023-04-16T02:58:36;19.30;52.30
59977;DHT22;45837;51.076;3.578;2023-04-16T03:01:02;19.30;53.40
59977;DHT22;45837;51.076;3.578;2023-04-16T03:03:28;19.30;52.80
59977;DHT22;45837;51.076;3.578;2023-04-16T03:05:54;19.30;52.80
59977;DHT22;45837;51.076;3.578;2023-04-16T03:08:20;19.30;52.50
59977;DHT22;45837;51.076;3.578;2023-04-16T03:10:46;19.30;52.60
59977;DHT22;45837;51.076;3.578;2023-04-16T03:13:13;19.40;52.90
59977;DHT22;45837;51.076;3.578;2023-04-16T03:15:38;19.30;52.80
59977;DHT22;45837;51.076;3.578;2023-04-16T03:18:04;19.30;53.00
59977;DHT22;45837;51.076;3.578;2023-04-16T03:20:30;19.30;52.90
59977;DHT22;45837;51.076;3.578;2023-04-16T03:22:56;19.30;53.10
59977;DHT22;45837;51.076;3.578;2023-04-16T03:25:21;19.30;52.90
59977;DHT22;45837;51.076;3.578;2023-04-16T03:27:47;19.30;52.70
59977;DHT22;45837;51.076;3.578;2023-04-16T03:30:15;17.40;51.50
59977;DHT22;45837;51.076;3.578;2023-04-16T03:32:41;19.30;52.70
59977;DHT22;45837;51.076;3.578;2023-04-16T03:35:08;19.20;52.80
59977;DHT22;45837;51.076;3.578;2023-04-16T03:37:34;19.20;52.70
59977;DHT22;45837;51.076;3.578;2023-04-16T03:40:00;18.20;52.00
59977;DHT22;45837;51.076;3.578;2023-04-16T03:42:26;19.20;53.00
59977;DHT22;45837;51.076;3.578;2023-04-16T03:44:52;19.20;53.20
59977;DHT22;45837;51.076;3.578;2023-04-16T03:47:20;19.20;52.60
59977;DHT22;45837;51.076;3.578;2023-04-16T03:49:47;19.20;52.80
59977;DHT22;45837;51.076;3.578;2023-04-16T03:52:13;19.20;52.70
59977;DHT22;45837;51.076;3.578;2023-04-16T03:54:39;19.20;52.90
59977;DHT22;45837;51.076;3.578;2023-04-16T03:57:16;19.20;52.70
59977;DHT22;45837;51.076;3.578;2023-04-16T03:59:42;19.20;53.20
59977;DHT22;45837;51.076;3.578;2023-04-16T04:02:08;19.20;52.80
59977;DHT22;45837;51.076;3.578;2023-04-16T04:04:34;19.20;53.20
59977;DHT22;45837;51.076;3.578;2023-04-16T04:06:59;19.20;53.20
59977;DHT22;45837;51.076;3.578;2023-04-16T04:09:26;19.20;53.00
59977;DHT22;45837;51.076;3.578;2023-04-16T04:11:52;19.20;53.20
59977;DHT22;45837;51.076;3.578;2023-04-16T04:14:18;19.20;52.70
59977;DHT22;45837;51.076;3.578;2023-04-16T04:16:43;19.20;52.80
59977;DHT22;45837;51.076;3.578;2023-04-16T04:19:10;19.20;52.70
59977;DHT22;45837;51.076;3.578;2023-04-16T04:21:36;19.20;52.80
59977;DHT22;45837;51.076;3.578;2023-04-16T04:24:03;19.20;53.00
59977;DHT22;45837;51.076;3.578;2023-04-16T04:26:32;19.20;53.30
59977;DHT22;45837;51.076;3.578;2023-04-16T04:28:58;19.20;53.10
59977;DHT22;45837;51.076;3.578;2023-04-16T04:31:23;19.20;53.00
59977;DHT22;45837;51.076;3.578;2023-04-16T04:33:49;19.20;53.10
59977;DHT22;45837;51.076;3.578;2023-04-16T04:36:15;19.20;52.60
59977;DHT22;45837;51.076;3.578;2023-04-16T04:38:41;19.10;53.30
59977;DHT22;45837;51.076;3.578;2023-04-16T04:41:07;19.10;52.80
59977;DHT22;45837;51.076;3.578;2023-04-16T04:43:35;19.10;52.70
59977;DHT22;45837;51.076;3.578;2023-04-16T04:46:01;19.10;53.00
59977;DHT22;45837;51.076;3.578;2023-04-16T04:48:28;19.10;52.90
59977;DHT22;45837;51.076;3.578;2023-04-16T04:50:54;19.10;53.40
59977;DHT22;45837;51.076;3.578;2023-04-16T04:53:20;19.10;53.10
59977;DHT22;45837;51.076;3.578;2023-04-16T04:55:46;19.10;53.20
59977;DHT22;45837;51.076;3.578;2023-04-16T04:58:12;19.10;53.10
59977;DHT22;45837;51.076;3.578;2023-04-16T05:00:40;19.10;53.80
59977;DHT22;45837;51.076;3.578;2023-04-16T05:03:09;19.10;53.00
59977;DHT22;45837;51.076;3.578;2023-04-16T05:05:35;19.20;52.50
59977;DHT22;45837;51.076;3.578;2023-04-16T05:08:01;19.10;53.50
59977;DHT22;45837;51.076;3.578;2023-04-16T05:10:27;19.10;53.30
59977;DHT22;45837;51.076;3.578;2023-04-16T05:12:52;19.00;53.40
59977;DHT22;45837;51.076;3.578;2023-04-16T05:15:18;19.10;53.10
59977;DHT22;45837;51.076;3.578;2023-04-16T05:17:44;19.10;53.30
59977;DHT22;45837;51.076;3.578;2023-04-16T05:20:10;19.10;52.70
59977;DHT22;45837;51.076;3.578;2023-04-16T05:22:36;19.10;52.70
59977;DHT22;45837;51.076;3.578;2023-04-16T05:25:02;19.00;52.80
59977;DHT22;45837;51.076;3.578;2023-04-16T05:27:28;19.00;52.90
59977;DHT22;45837;51.076;3.578;2023-04-16T05:29:53;19.00;53.20
59977;DHT22;45837;51.076;3.578;2023-04-16T05:32:19;19.10;53.40
59977;DHT22;45837;51.076;3.578;2023-04-16T05:34:45;19.10;53.20
59977;DHT22;45837;51.076;3.578;2023-04-16T05:37:10;19.00;53.00
59977;DHT22;45837;51.076;3.578;2023-04-16T05:39:36;19.00;52.70
59977;DHT22;45837;51.076;3.578;2023-04-16T05:42:02;19.10;53.10
59977;DHT22;45837;51.076;3.578;2023-04-16T05:44:28;19.10;52.80
59977;DHT22;45837;51.076;3.578;2023-04-16T05:46:53;19.00;52.90
59977;DHT22;45837;51.076;3.578;2023-04-16T05:49:19;19.00;53.30
59977;DHT22;45837;51.076;3.578;2023-04-16T05:51:46;19.00;53.10
59977;DHT22;45837;51.076;3.578;2023-04-16T05:54:12;19.10;52.80
59977;DHT22;45837;51.076;3.578;2023-04-16T05:56:38;19.00;53.50
59977;DHT22;45837;51.076;3.578;2023-04-16T05:59:04;19.00;53.30
59977;DHT22;45837;51.076;3.578;2023-04-16T06:01:29;19.00;52.90
59977;DHT22;45837;51.076;3.578;2023-04-16T06:03:55;19.00;52.90
59977;DHT22;45837;51.076;3.578;2023-04-16T06:06:21;19.00;53.30
59977;DHT22;45837;51.076;3.578;2023-04-16T06:08:46;16.60;52.00
59977;DHT22;45837;51.076;3.578;2023-04-16T06:11:12;19.10;53.60
59977;DHT22;45837;51.076;3.578;2023-04-16T06:13:38;19.00;52.90
59977;DHT22;45837;51.076;3.578;2023-04-16T06:16:04;19.00;53.70
59977;DHT22;45837;51.076;3.578;2023-04-16T06:18:31;19.00;52.70
59977;DHT22;45837;51.076;3.578;2023-04-16T06:20:57;19.00;53.90
59977;DHT22;45837;51.076;3.578;2023-04-16T06:23:25;19.00;52.50
59977;DHT22;45837;51.076;3.578;2023-04-16T06:25:51;19.00;53.00
59977;DHT22;45837;51.076;3.578;2023-04-16T06:28:17;18.60;52.80
59977;DHT22;45837;51.076;3.578;2023-04-16T06:30:42;19.00;53.70
59977;DHT22;45837;51.076;3.578;2023-04-16T06:33:08;19.00;53.10
59977;DHT22;45837;51.076;3.578;2023-04-16T06:35:34;19.00;53.50
59977;DHT22;45837;51.076;3.578;2023-04-16T06:38:00;18.90;53.50
59977;DHT22;45837;51.076;3.578;2023-04-16T06:40:25;19.10;53.90
59977;DHT22;45837;51.076;3.578;2023-04-16T06:42:52;19.00;53.10
59977;DHT22;45837;51.076;3.578;2023-04-16T06:45:17;19.00;52.50
59977;DHT22;45837;51.076;3.578;2023-04-16T06:47:43;19.00;53.50
59977;DHT22;45837;51.076;3.578;2023-04-16T06:50:09;18.90;53.20
59977;DHT22;45837;51.076;3.578;2023-04-16T06:52:35;18.90;52.90
59977;DHT22;45837;51.076;3.578;2023-04-16T06:55:01;18.90;53.20
59977;DHT22;45837;51.076;3.578;2023-04-16T06:57:26;18.90;52.70
59977;DHT22;45837;51.076;3.578;2023-04-16T06:59:52;19.00;53.20
59977;DHT22;45837;51.076;3.578;2023-04-16T07:02:18;18.90;53.00
59977;DHT22;45837;51.076;3.578;2023-04-16T07:04:44;18.90;52.90
59977;DHT22;45837;51.076;3.578;2023-04-16T07:07:09;18.90;53.10
59977;DHT22;45837;51.076;3.578;2023-04-16T07:09:35;18.90;53.20
59977;DHT22;45837;51.076;3.578;2023-04-16T07:12:01;18.90;53.00
59977;DHT22;45837;51.076;3.578;2023-04-16T07:14:27;18.90;53.10
59977;DHT22;45837;51.076;3.578;2023-04-16T07:16:52;18.90;53.00
59977;DHT22;45837;51.076;3.578;2023-04-16T07:19:18;18.90;53.30
59977;DHT22;45837;51.076;3.578;2023-04-16T07:21:43;18.90;52.90
59977;DHT22;45837;51.076;3.578;2023-04-16T07:24:10;18.90;53.30
59977;DHT22;45837;51.076;3.578;2023-04-16T07:26:36;18.60;53.00
59977;DHT22;45837;51.076;3.578;2023-04-16T07:29:02;18.90;53.20
59977;DHT22;45837;51.076;3.578;2023-04-16T07:31:27;19.30;53.40
59977;DHT22;45837;51.076;3.578;2023-04-16T07:33:53;18.90;53.20
59977;DHT22;45837;51.076;3.578;2023-04-16T07:36:19;18.90;53.30
59977;DHT22;45837;51.076;3.578;2023-04-16T07:38:45;18.90;53.40
59977;DHT22;45837;51.076;3.578;2023-04-16T07:41:11;18.90;53.30
59977;DHT22;45837;51.076;3.578;2023-04-16T07:43:37;18.90;52.90
59977;DHT22;45837;51.076;3.578;2023-04-16T07:46:02;19.00;53.90
59977;DHT22;45837;51.076;3.578;2023-04-16T07:48:28;19.10;53.70
59977;DHT22;45837;51.076;3.578;2023-04-16T07:50:54;19.00;53.80
59977;DHT22;45837;51.076;3.578;2023-04-16T07:53:20;19.00;53.10
59977;DHT22;45837;51.076;3.578;2023-04-16T07:55:45;19.00;52.90
59977;DHT22;45837;51.076;3.578;2023-04-16T07:58:11;19.10;53.10
59977;DHT22;45837;51.076;3.578;2023-04-16T08:00:37;19.10;53.00
59977;DHT22;45837;51.076;3.578;2023-04-16T08:03:03;19.10;52.30
59977;DHT22;45837;51.076;3.578;2023-04-16T08:05:29;18.50;52.30
59977;DHT22;45837;51.076;3.578;2023-04-16T08:07:55;19.10;52.90
59977;DHT22;45837;51.076;3.578;2023-04-16T08:10:21;19.10;52.80
59977;DHT22;45837;51.076;3.578;2023-04-16T08:12:46;19.10;53.00
59977;DHT22;45837;51.076;3.578;2023-04-16T08:15:12;19.10;53.00
59977;DHT22;45837;51.076;3.578;2023-04-16T08:17:38;19.10;53.10
59977;DHT22;45837;51.076;3.578;2023-04-16T08:20:04;19.10;52.70
59977;DHT22;45837;51.076;3.578;2023-04-16T08:22:31;19.10;52.30
59977;DHT22;45837;51.076;3.578;2023-04-16T08:24:57;19.10;51.90
59977;DHT22;45837;51.076;3.578;2023-04-16T08:27:23;19.10;52.80
59977;DHT22;45837;51.076;3.578;2023-04-16T08:29:49;20.10;52.80
59977;DHT22;45837;51.076;3.578;2023-04-16T08:32:15;19.20;52.30
59977;DHT22;45837;51.076;3.578;2023-04-16T08:34:41;19.20;52.50
59977;DHT22;45837;51.076;3.578;2023-04-16T08:37:07;19.20;52.00
59977;DHT22;45837;51.076;3.578;2023-04-16T08:39:33;18.00;52.20
59977;DHT22;45837;51.076;3.578;2023-04-16T08:41:59;19.20;52.00
59977;DHT22;45837;51.076;3.578;2023-04-16T08:44:27;19.20;51.80
59977;DHT22;45837;51.076;3.578;2023-04-16T08:46:56;19.80;52.10
59977;DHT22;45837;51.076;3.578;2023-04-16T08:49:23;19.30;51.50
59977;DHT22;45837;51.076;3.578;2023-04-16T08:51:50;19.30;51.60
59977;DHT22;45837;51.076;3.578;2023-04-16T08:54:22;19.30;51.70
59977;DHT22;45837;51.076;3.578;2023-04-16T08:56:51;19.40;52.00
59977;DHT22;45837;51.076;3.578;2023-04-16T08:59:17;19.40;52.10
59977;DHT22;45837;51.076;3.578;2023-04-16T09:01:43;19.40;52.00
59977;DHT22;45837;51.076;3.578;2023-04-16T09:04:11;19.40;52.90
59977;DHT22;45837;51.076;3.578;2023-04-16T09:06:38;19.40;52.00
59977;DHT22;45837;51.076;3.578;2023-04-16T09:09:06;19.40;51.80
59977;DHT22;45837;51.076;3.578;2023-04-16T09:11:33;19.30;51.80
59977;DHT22;45837;51.076;3.578;2023-04-16T09:13:59;19.40;52.20
59977;DHT22;45837;51.076;3.578;2023-04-16T09:16:25;19.40;51.60
59977;DHT22;45837;51.076;3.578;2023-04-16T09:18:52;19.50;51.70
59977;DHT22;45837;51.076;3.578;2023-04-16T09:21:18;19.40;52.10
59977;DHT22;45837;51.076;3.578;2023-04-16T09:23:44;19.40;51.60
59977;DHT22;45837;51.076;3.578;2023-04-16T09:26:10;19.50;52.00
59977;DHT22;45837;51.076;3.578;2023-04-16T09:28:43;19.50;52.20
59977;DHT22;45837;51.076;3.578;2023-04-16T09:31:10;19.50;51.60
59977;DHT22;45837;51.076;3.578;2023-04-16T09:33:37;19.50;51.80
59977;DHT22;45837;51.076;3.578;2023-04-16T09:36:03;19.50;52.00
59977;DHT22;45837;51.076;3.578;2023-04-16T09:38:44;19.60;52.00
59977;DHT22;45837;51.076;3.578;2023-04-16T09:41:10;19.60;52.10
59977;DHT22;45837;51.076;3.578;2023-04-16T09:43:36;19.60;52.40
59977;DHT22;45837;51.076;3.578;2023-04-16T09:46:02;19.50;52.40
59977;DHT22;45837;51.076;3.578;2023-04-16T09:48:29;19.60;51.90
59977;DHT22;45837;51.076;3.578;2023-04-16T09:50:55;19.60;52.00
59977;DHT22;45837;51.076;3.578;2023-04-16T09:53:24;19.60;52.00
59977;DHT22;45837;51.076;3.578;2023-04-16T09:56:01;19.60;51.60
59977;DHT22;45837;51.076;3.578;2023-04-16T09:58:27;19.60;51.60
59977;DHT22;45837;51.076;3.578;2023-04-16T10:01:04;19.60;52.00
59977;DHT22;45837;51.076;3.578;2023-04-16T10:03:30;19.60;51.50
59977;DHT22;45837;51.076;3.578;2023-04-16T10:08:31;19.70;51.40
59977;DHT22;45837;51.076;3.578;2023-04-16T10:10:56;19.70;52.10
59977;DHT22;45837;51.076;3.578;2023-04-16T10:13:23;19.60;52.00
59977;DHT22;45837;51.076;3.578;2023-04-16T10:15:55;19.70;51.70
59977;DHT22;45837;51.076;3.578;2023-04-16T10:18:22;19.90;51.90
59977;DHT22;45837;51.076;3.578;2023-04-16T10:20:48;19.70;52.20
59977;DHT22;45837;51.076;3.578;2023-04-16T10:23:14;21.50;53.20
59977;DHT22;45837;51.076;3.578;2023-04-16T10:25:39;19.70;52.90
59977;DHT22;45837;51.076;3.578;2023-04-16T10:28:07;19.60;53.60
59977;DHT22;45837;51.076;3.578;2023-04-16T10:30:33;19.60;54.20
59977;DHT22;45837;51.076;3.578;2023-04-16T10:33:00;19.70;53.80
59977;DHT22;45837;51.076;3.578;2023-04-16T10:35:26;19.60;53.80
59977;DHT22;45837;51.076;3.578;2023-04-16T10:37:55;19.60;54.20
59977;DHT22;45837;51.076;3.578;2023-04-16T10:40:22;19.60;53.30
59977;DHT22;45837;51.076;3.578;2023-04-16T10:42:55;19.60;53.50
59977;DHT22;45837;51.076;3.578;2023-04-16T10:45:30;19.70;53.40
59977;DHT22;45837;51.076;3.578;2023-04-16T10:47:57;19.70;53.40
59977;DHT22;45837;51.076;3.578;2023-04-16T10:50:23;19.70;53.50
59977;DHT22;45837;51.076;3.578;2023-04-16T10:53:03;19.70;53.60
59977;DHT22;45837;51.076;3.578;2023-04-16T10:55:37;19.70;53.60
59977;DHT22;45837;51.076;3.578;2023-04-16T10:58:13;19.70;53.40
59977;DHT22;45837;51.076;3.578;2023-04-16T11:00:48;19.70;53.40
59977;DHT22;45837;51.076;3.578;2023-04-16T11:03:15;19.70;53.40
59977;DHT22;45837;51.076;3.578;2023-04-16T11:05:44;19.70;53.60
59977;DHT22;45837;51.076;3.578;2023-04-16T11:08:14;19.70;53.30
59977;DHT22;45837;51.076;3.578;2023-04-16T11:10:43;19.70;53.30
59977;DHT22;45837;51.076;3.578;2023-04-16T11:13:09;19.70;53.90
59977;DHT22;45837;51.076;3.578;2023-04-16T11:15:37;19.70;53.50
59977;DHT22;45837;51.076;3.578;2023-04-16T11:18:03;19.70;54.00
59977;DHT22;45837;51.076;3.578;2023-04-16T11:20:29;19.70;53.70
59977;DHT22;45837;51.076;3.578;2023-04-16T11:22:56;19.70;53.00
59977;DHT22;45837;51.076;3.578;2023-04-16T11:25:23;19.70;52.60
59977;DHT22;45837;51.076;3.578;2023-04-16T11:27:49;19.60;52.50
59977;DHT22;45837;51.076;3.578;2023-04-16T11:30:15;19.60;52.10
59977;DHT22;45837;51.076;3.578;2023-04-16T11:32:42;19.70;52.00
59977;DHT22;45837;51.076;3.578;2023-04-16T11:35:17;19.60;51.90
59977;DHT22;45837;51.076;3.578;2023-04-16T11:37:43;19.70;52.10
59977;DHT22;45837;51.076;3.578;2023-04-16T11:40:09;19.70;52.40
59977;DHT22;45837;51.076;3.578;2023-04-16T11:42:36;19.60;52.20
59977;DHT22;45837;51.076;3.578;2023-04-16T11:45:02;19.60;52.30
59977;DHT22;45837;51.076;3.578;2023-04-16T11:47:28;19.60;52.30
59977;DHT22;45837;51.076;3.578;2023-04-16T11:49:54;19.60;52.30
59977;DHT22;45837;51.076;3.578;2023-04-16T11:52:30;19.70;53.30
59977;DHT22;45837;51.076;3.578;2023-04-16T11:54:56;19.70;52.50
59977;DHT22;45837;51.076;3.578;2023-04-16T11:57:28;19.70;52.70
59977;DHT22;45837;51.076;3.578;2023-04-16T11:59:55;19.70;52.70
59977;DHT22;45837;51.076;3.578;2023-04-16T12:02:42;19.70;52.80
59977;DHT22;45837;51.076;3.578;2023-04-16T12:05:28;19.70;52.90
59977;DHT22;45837;51.076;3.578;2023-04-16T12:07:55;19.70;53.10
59977;DHT22;45837;51.076;3.578;2023-04-16T12:10:21;19.60;53.40
59977;DHT22;45837;51.076;3.578;2023-04-16T12:12:47;19.70;53.60
59977;DHT22;45837;51.076;3.578;2023-04-16T12:15:13;19.70;53.40
59977;DHT22;45837;51.076;3.578;2023-04-16T12:17:38;19.70;53.40
59977;DHT22;45837;51.076;3.578;2023-04-16T12:20:11;19.70;53.50
59977;DHT22;45837;51.076;3.578;2023-04-16T12:22:38;19.70;52.80
59977;DHT22;45837;51.076;3.578;2023-04-16T12:25:05;19.70;53.10
59977;DHT22;45837;51.076;3.578;2023-04-16T12:27:47;19.70;53.10
59977;DHT22;45837;51.076;3.578;2023-04-16T12:30:15;19.70;52.80
59977;DHT22;45837;51.076;3.578;2023-04-16T12:32:42;19.70;53.10
59977;DHT22;45837;51.076;3.578;2023-04-16T12:35:09;19.70;52.80
59977;DHT22;45837;51.076;3.578;2023-04-16T12:37:35;19.70;52.50
59977;DHT22;45837;51.076;3.578;2023-04-16T12:40:01;19.70;52.50
59977;DHT22;45837;51.076;3.578;2023-04-16T12:42:26;19.70;52.50
59977;DHT22;45837;51.076;3.578;2023-04-16T12:44:52;19.70;52.00
59977;DHT22;45837;51.076;3.578;2023-04-16T12:47:18;19.70;52.20
59977;DHT22;45837;51.076;3.578;2023-04-16T12:49:43;19.60;52.10
59977;DHT22;45837;51.076;3.578;2023-04-16T12:52:10;19.60;51.20
59977;DHT22;45837;51.076;3.578;2023-04-16T12:54:35;19.70;51.10
59977;DHT22;45837;51.076;3.578;2023-04-16T12:57:01;19.60;51.40
59977;DHT22;45837;51.076;3.578;2023-04-16T12:59:27;19.60;50.70
59977;DHT22;45837;51.076;3.578;2023-04-16T13:01:53;19.60;50.90
59977;DHT22;45837;51.076;3.578;2023-04-16T13:04:19;19.60;50.90
59977;DHT22;45837;51.076;3.578;2023-04-16T13:06:45;19.60;50.90
59977;DHT22;45837;51.076;3.578;2023-04-16T13:09:10;19.60;50.90
59977;DHT22;45837;51.076;3.578;2023-04-16T13:11:36;19.60;50.60
59977;DHT22;45837;51.076;3.578;2023-04-16T13:14:02;19.60;50.70
59977;DHT22;45837;51.076;3.578;2023-04-16T13:16:27;19.60;50.70
59977;DHT22;45837;51.076;3.578;2023-04-16T13:18:53;19.60;51.40
59977;DHT22;45837;51.076;3.578;2023-04-16T13:21:19;19.60;50.70
59977;DHT22;45837;51.076;3.578;2023-04-16T13:23:45;19.60;50.90
59977;DHT22;45837;51.076;3.578;2023-04-16T13:26:10;19.60;51.40
59977;DHT22;45837;51.076;3.578;2023-04-16T13:28:39;19.60;50.50
59977;DHT22;45837;51.076;3.578;2023-04-16T13:31:04;19.60;50.80
59977;DHT22;45837;51.076;3.578;2023-04-16T13:33:30;19.60;50.40
59977;DHT22;45837;51.076;3.578;2023-04-16T13:35:56;19.60;50.80
59977;DHT22;45837;51.076;3.578;2023-04-16T13:38:22;19.60;50.90
59977;DHT22;45837;51.076;3.578;2023-04-16T13:40:47;19.60;50.70
59977;DHT22;45837;51.076;3.578;2023-04-16T13:43:13;19.60;50.60
59977;DHT22;45837;51.076;3.578;2023-04-16T13:45:40;19.60;50.40
59977;DHT22;45837;51.076;3.578;2023-04-16T13:48:06;19.60;50.80
59977;DHT22;45837;51.076;3.578;2023-04-16T13:50:32;19.60;50.80
59977;DHT22;45837;51.076;3.578;2023-04-16T13:52:58;19.60;50.70
59977;DHT22;45837;51.076;3.578;2023-04-16T13:55:23;19.70;50.60
59977;DHT22;45837;51.076;3.578;2023-04-16T13:57:49;19.60;50.30
59977;DHT22;45837;51.076;3.578;2023-04-16T14:00:16;19.60;50.50
59977;DHT22;45837;51.076;3.578;2023-04-16T14:02:42;19.60;50.50
59977;DHT22;45837;51.076;3.578;2023-04-16T14:05:10;19.60;50.80
59977;DHT22;45837;51.076;3.578;2023-04-16T14:07:36;19.60;50.50
59977;DHT22;45837;51.076;3.578;2023-04-16T14:10:01;19.60;50.50
59977;DHT22;45837;51.076;3.578;2023-04-16T14:12:27;19.60;50.90
59977;DHT22;45837;51.076;3.578;2023-04-16T14:14:53;19.70;51.30
59977;DHT22;45837;51.076;3.578;2023-04-16T14:17:19;19.60;50.90
59977;DHT22;45837;51.076;3.578;2023-04-16T14:19:44;19.60;51.10
59977;DHT22;45837;51.076;3.578;2023-04-16T14:22:10;19.60;51.30
59977;DHT22;45837;51.076;3.578;2023-04-16T14:24:37;19.70;50.60
59977;DHT22;45837;51.076;3.578;2023-04-16T14:27:03;19.60;51.40
59977;DHT22;45837;51.076;3.578;2023-04-16T14:29:29;19.60;51.00
59977;DHT22;45837;51.076;3.578;2023-04-16T14:31:55;19.70;50.60
59977;DHT22;45837;51.076;3.578;2023-04-16T14:34:21;19.70;50.90
59977;DHT22;45837;51.076;3.578;2023-04-16T14:36:46;19.70;51.60
59977;DHT22;45837;51.076;3.578;2023-04-16T14:39:14;19.60;51.00
59977;DHT22;45837;51.076;3.578;2023-04-16T14:41:40;19.70;51.30
59977;DHT22;45837;51.076;3.578;2023-04-16T14:44:05;19.70;51.40
59977;DHT22;45837;51.076;3.578;2023-04-16T14:46:32;19.70;51.10
59977;DHT22;45837;51.076;3.578;2023-04-16T14:48:58;19.70;51.40
59977;DHT22;45837;51.076;3.578;2023-04-16T14:51:23;19.70;51.40
59977;DHT22;45837;51.076;3.578;2023-04-16T14:53:50;19.70;51.00
59977;DHT22;45837;51.076;3.578;2023-04-16T14:56:16;19.60;51.20
59977;DHT22;45837;51.076;3.578;2023-04-16T14:58:42;19.70;51.40
59977;DHT22;45837;51.076;3.578;2023-04-16T15:01:07;19.70;51.30
59977;DHT22;45837;51.076;3.578;2023-04-16T15:03:33;19.70;51.50
59977;DHT22;45837;51.076;3.578;2023-04-16T15:05:59;19.70;51.80
59977;DHT22;45837;51.076;3.578;2023-04-16T15:08:25;19.70;51.60
59977;DHT22;45837;51.076;3.578;2023-04-16T15:10:51;19.70;52.90
59977;DHT22;45837;51.076;3.578;2023-04-16T15:13:17;19.70;52.90
59977;DHT22;45837;51.076;3.578;2023-04-16T15:15:42;19.70;52.90
59977;DHT22;45837;51.076;3.578;2023-04-16T15:18:08;19.80;53.20
59977;DHT22;45837;51.076;3.578;2023-04-16T15:20:34;19.70;54.00
59977;DHT22;45837;51.076;3.578;2023-04-16T15:23:00;19.70;53.00
59977;DHT22;45837;51.076;3.578;2023-04-16T15:25:26;19.80;53.10
59977;DHT22;45837;51.076;3.578;2023-04-16T15:27:51;19.80;53.60